San Isabel, Colorado
Current Conditions -  °F | °C
As of 12:53 PM on Friday 28 Nov 2014 (Local Time) from KPUB Reporting Station
Clear Clear  
Wind Chill: 70°   Ceiling: Unl
Heat Index: 70°   Visibility: 10mi
Dew Point: 17°   Wind: 6mph
Humidity: 13%   Direction: 220°SW
Pressure: 29.87"   Gusts: NA
Location:  37.9584°N, 104.823°W
Report Text: KPUB 281953Z 22005KT 10SM CLR 21/M08 A2987 RMK AO2 SLP081 T02111083
Loading
Personal Weather Stations






























Interactive Weather Map New forecast layout! Learn more

10-Day Weather Forecast

Advertisements
Track Severe Weather on mobile